Time,TemperatureF,DewpointF,PressureIn,WindDirection,WindDirectionDegrees,WindSpeedMPH,WindSpeedGustMPH,Humidity,HourlyPrecipIn,Conditions,Clouds,dailyrainin,SoftwareType,DateUTC
2013-03-07 00:02:00,41.5,16.5,29.91,NNE,22,3.3,4.0,36,0.00,CLR,,0.00,WeatherDisplay:10.37,2013-03-07 06:02:00,
2013-03-07 00:07:00,41.5,16.5,29.91,NE,45,2.2,4.6,36,0.00,CLR,,0.00,WeatherDisplay:10.37,2013-03-07 06:07:00,
2013-03-07 00:12:00,41.4,16.4,29.91,NNE,22,3.3,4.6,36,0.00,CLR,,0.00,WeatherDisplay:10.37,2013-03-07 06:12:00,
2013-03-07 00:17:00,41.4,16.4,29.91,NNE,22,2.2,4.6,36,0.00,CLR,,0.00,WeatherDisplay:10.37,2013-03-07 06:17:00,
2013-03-07 00:22:00,41.2,16.8,29.91,North,0,2.9,3.5,37,0.00,CLR,,0.00,WeatherDisplay:10.37,2013-03-07 06:22:00,
2013-03-07 00:27:00,41.0,17.3,29.91,NNE,22,2.2,2.9,38,0.00,CLR,,0.00,WeatherDisplay:10.37,2013-03-07 06:27:00,
2013-03-07 00:32:00,40.8,17.1,29.91,NNE,22,2.9,3.5,38,0.00,CLR,,0.00,WeatherDisplay:10.37,2013-03-07 06:32:00,
2013-03-07 00:37:00,40.6,17.6,29.91,North,0,2.2,4.6,39,0.00,CLR,,0.00,WeatherDisplay:10.37,2013-03-07 06:37:00,
2013-03-07 00:42:00,40.5,17.4,29.91,NNE,22,2.4,3.5,39,0.00,CLR,,0.00,WeatherDisplay:10.37,2013-03-07 06:42:00,
2013-03-07 00:47:00,40.5,17.4,29.91,NNE,22,3.3,4.6,39,0.00,CLR,,0.00,WeatherDisplay:10.37,2013-03-07 06:47:00,
2013-03-07 00:52:00,40.3,17.3,29.91,NNE,22,2.9,4.6,39,0.00,CLR,,0.00,WeatherDisplay:10.37,2013-03-07 06:52:00,
2013-03-07 00:57:00,40.3,17.3,29.91,North,0,2.2,3.5,39,0.00,CLR,,0.00,WeatherDisplay:10.37,2013-03-07 06:57:00,
2013-03-07 01:02:00,39.9,16.9,29.91,North,0,1.6,2.4,39,0.00,CLR,,0.00,WeatherDisplay:10.37,2013-03-07 07:02:00,
2013-03-07 01:07:00,39.7,16.8,29.91,NNE,22,2.6,3.5,39,0.00,CLR,,0.00,WeatherDisplay:10.37,2013-03-07 07:07:00,
2013-03-07 01:12:00,39.7,16.8,29.91,NE,45,2.4,3.5,39,0.00,CLR,,0.00,WeatherDisplay:10.37,2013-03-07 07:12:00,
2013-03-07 01:17:00,39.6,16.6,29.91,NE,45,1.4,2.4,39,0.00,CLR,,0.00,WeatherDisplay:10.37,2013-03-07 07:17:00,
2013-03-07 01:22:00,39.6,17.2,29.94,North,0,2.0,4.6,40,0.00,CLR,,0.00,WeatherDisplay:10.37,2013-03-07 07:22:00,
2013-03-07 01:27:00,39.4,17.0,29.94,North,0,2.2,3.8,40,0.00,CLR,,0.00,WeatherDisplay:10.37,2013-03-07 07:27:00,
2013-03-07 01:32:00,39.2,16.9,29.94,North,0,2.4,2.9,40,0.00,CLR,,0.00,WeatherDisplay:10.37,2013-03-07 07:32:00,
2013-03-07 01:37:00,39.0,16.7,29.91,North,0,2.0,3.5,40,0.00,CLR,,0.00,WeatherDisplay:10.37,2013-03-07 07:37:00,
2013-03-07 01:42:00,39.0,17.3,29.91,NNE,22,2.2,3.5,41,0.00,CLR,,0.00,WeatherDisplay:10.37,2013-03-07 07:42:00,
2013-03-07 01:47:00,38.8,17.1,29.91,NNE,22,1.6,3.5,41,0.00,CLR,,0.00,WeatherDisplay:10.37,2013-03-07 07:47:00,
2013-03-07 01:52:00,38.7,17.0,29.91,NE,45,2.0,2.6,41,0.00,CLR,,0.00,WeatherDisplay:10.37,2013-03-07 07:52:00,
2013-03-07 01:57:00,38.7,17.0,29.91,North,0,0.0,3.5,41,0.00,CLR,,0.00,WeatherDisplay:10.37,2013-03-07 07:57:00,
2013-03-07 02:02:00,38.5,16.8,29.91,NNE,22,1.4,1.6,41,0.00,CLR,,0.00,WeatherDisplay:10.37,2013-03-07 08:02:00,
2013-03-07 02:07:00,38.5,16.8,29.91,NW,315,0.0,2.3,41,0.00,CLR,,0.00,WeatherDisplay:10.37,2013-03-07 08:07:00,
2013-03-07 02:12:00,38.1,16.5,29.91,NW,315,1.4,2.3,41,0.00,CLR,,0.00,WeatherDisplay:10.37,2013-03-07 08:12:00,
2013-03-07 02:18:00,37.6,16.0,29.91,NNW,338,0.9,1.2,41,0.00,CLR,,0.00,WeatherDisplay:10.37,2013-03-07 08:18:00,
2013-03-07 02:23:00,37.4,15.8,29.88,North,0,0.0,0.0,41,0.00,CLR,,0.00,WeatherDisplay:10.37,2013-03-07 08:23:00,
2013-03-07 02:28:00,37.0,16.0,29.88,North,0,0.0,0.0,42,0.00,CLR,,0.00,WeatherDisplay:10.37,2013-03-07 08:28:00,
2013-03-07 02:33:00,36.7,15.2,29.88,NW,315,0.0,0.0,41,0.00,CLR,,0.00,WeatherDisplay:10.37,2013-03-07 08:33:00,
2013-03-07 02:38:00,36.5,15.6,29.88,North,0,0.0,0.0,42,0.00,CLR,,0.00,WeatherDisplay:10.37,2013-03-07 08:38:00,
2013-03-07 02:43:00,36.3,16.5,29.88,North,0,0.0,0.0,44,0.00,CLR,,0.00,WeatherDisplay:10.37,2013-03-07 08:43:00,
2013-03-07 02:48:00,36.3,17.5,29.88,NNE,22,1.4,2.3,46,0.00,CLR,,0.00,WeatherDisplay:10.37,2013-03-07 08:48:00,
2013-03-07 02:53:00,36.3,18.0,29.88,NNE,22,1.4,2.3,47,0.00,CLR,,0.00,WeatherDisplay:10.37,2013-03-07 08:53:00,
2013-03-07 02:58:00,36.3,17.5,29.88,North,0,0.9,1.4,46,0.00,CLR,,0.00,WeatherDisplay:10.37,2013-03-07 08:58:00,
2013-03-07 03:03:00,36.3,16.5,29.88,NNW,338,1.2,2.3,44,0.00,CLR,,0.00,WeatherDisplay:10.37,2013-03-07 09:03:00,
2013-03-07 03:08:00,36.1,16.3,29.88,North,0,0.0,0.0,44,0.00,CLR,,0.00,WeatherDisplay:10.37,2013-03-07 09:08:00,
2013-03-07 03:13:00,36.0,16.1,29.88,NNE,22,0.0,0.0,44,0.00,CLR,,0.00,WeatherDisplay:10.37,2013-03-07 09:13:00,
2013-03-07 03:18:00,36.1,16.3,29.88,East,90,1.4,2.2,44,0.00,CLR,,0.00,WeatherDisplay:10.37,2013-03-07 09:18:00,
2013-03-07 03:23:00,36.1,16.8,29.88,NE,45,1.2,1.4,45,0.00,CLR,,0.00,WeatherDisplay:10.37,2013-03-07 09:23:00,
2013-03-07 03:29:00,36.1,16.3,29.88,NE,45,0.0,1.2,44,0.00,CLR,,0.00,WeatherDisplay:10.37,2013-03-07 09:29:00,
2013-03-07 03:35:00,36.1,16.8,29.88,NNE,22,0.9,1.4,45,0.00,CLR,,0.00,WeatherDisplay:10.37,2013-03-07 09:35:00,
2013-03-07 03:40:00,36.3,18.5,29.88,NE,45,1.6,2.3,48,0.00,CLR,,0.00,WeatherDisplay:10.37,2013-03-07 09:40:00,
2013-03-07 03:45:00,36.3,19.4,29.88,North,0,1.6,2.4,50,0.00,CLR,,0.00,WeatherDisplay:10.37,2013-03-07 09:45:00,
2013-03-07 03:50:00,36.7,19.8,29.88,North,0,2.0,2.6,50,0.00,CLR,,0.00,WeatherDisplay:10.37,2013-03-07 09:50:00,
2013-03-07 03:55:00,36.9,19.9,29.88,NE,45,2.4,3.5,50,0.00,CLR,,0.00,WeatherDisplay:10.37,2013-03-07 09:55:00,
2013-03-07 04:00:00,37.0,20.1,29.88,North,0,2.9,4.6,50,0.00,CLR,,0.00,WeatherDisplay:10.37,2013-03-07 10:00:00,
2013-03-07 04:05:00,37.4,20.0,29.88,NE,45,3.6,5.8,49,0.00,CLR,,0.00,WeatherDisplay:10.37,2013-03-07 10:05:00,
2013-03-07 04:10:00,37.6,19.1,29.88,ENE,68,4.3,5.8,47,0.00,CLR,,0.00,WeatherDisplay:10.37,2013-03-07 10:10:00,
2013-03-07 04:15:00,37.6,19.1,29.88,NE,45,4.0,6.9,47,0.00,CLR,,0.00,WeatherDisplay:10.37,2013-03-07 10:15:00,
2013-03-07 04:20:00,37.6,19.1,29.88,NNE,22,2.9,4.6,47,0.00,CLR,,0.00,WeatherDisplay:10.37,2013-03-07 10:20:00,
2013-03-07 04:26:00,37.8,19.3,29.88,NNE,22,3.1,5.8,47,0.00,CLR,,0.00,WeatherDisplay:10.37,2013-03-07 10:26:00,
2013-03-07 04:31:00,37.9,19.0,29.88,NE,45,3.8,4.6,46,0.00,CLR,,0.00,WeatherDisplay:10.37,2013-03-07 10:31:00,
2013-03-07 04:36:00,37.9,19.0,29.88,NE,45,2.6,4.6,46,0.00,CLR,,0.00,WeatherDisplay:10.37,2013-03-07 10:36:00,
2013-03-07 04:41:00,38.1,19.1,29.88,NE,45,3.3,4.6,46,0.00,CLR,,0.00,WeatherDisplay:10.37,2013-03-07 10:41:00,
2013-03-07 04:46:00,38.1,19.1,29.88,NNE,22,1.4,4.6,46,0.00,CLR,,0.00,WeatherDisplay:10.37,2013-03-07 10:46:00,
2013-03-07 04:52:00,37.9,19.0,29.88,North,0,2.2,3.5,46,0.00,CLR,,0.00,WeatherDisplay:10.37,2013-03-07 10:52:00,
2013-03-07 04:57:00,38.1,19.1,29.88,North,0,3.6,4.6,46,0.00,CLR,,0.00,WeatherDisplay:10.37,2013-03-07 10:57:00,
2013-03-07 05:02:00,38.1,19.1,29.88,ENE,68,2.9,4.6,46,0.00,CLR,,0.00,WeatherDisplay:10.37,2013-03-07 11:02:00,
2013-03-07 05:07:00,38.1,18.6,29.88,ENE,68,3.3,3.6,45,0.00,CLR,,0.00,WeatherDisplay:10.37,2013-03-07 11:07:00,
2013-03-07 05:12:00,38.1,19.1,29.88,NNE,22,2.2,3.5,46,0.00,CLR,,0.00,WeatherDisplay:10.37,2013-03-07 11:12:00,
2013-03-07 05:17:00,38.1,19.1,29.88,NNE,22,2.2,3.5,46,0.00,CLR,,0.00,WeatherDisplay:10.37,2013-03-07 11:17:00,
2013-03-07 05:23:00,38.1,19.1,29.88,North,0,2.0,4.6,46,0.00,CLR,,0.00,WeatherDisplay:10.37,2013-03-07 11:23:00,
2013-03-07 05:28:00,38.1,18.6,29.88,NNW,338,0.0,0.0,45,0.00,CLR,,0.00,WeatherDisplay:10.37,2013-03-07 11:28:00,
2013-03-07 05:33:00,37.9,19.0,29.88,North,0,2.4,2.9,46,0.00,CLR,,0.00,WeatherDisplay:10.37,2013-03-07 11:33:00,
2013-03-07 05:38:00,37.9,19.0,29.88,NNE,22,4.0,4.3,46,0.00,CLR,,0.00,WeatherDisplay:10.37,2013-03-07 11:38:00,
2013-03-07 05:43:00,37.9,19.0,29.88,NNE,22,2.6,3.5,46,0.00,CLR,,0.00,WeatherDisplay:10.37,2013-03-07 11:43:00,
2013-03-07 05:48:00,37.9,18.5,29.88,WNW,292,0.0,1.2,45,0.00,CLR,,0.00,WeatherDisplay:10.37,2013-03-07 11:48:00,
2013-03-07 05:53:00,37.9,18.5,29.91,WNW,292,0.0,0.0,45,0.00,CLR,,0.00,WeatherDisplay:10.37,2013-03-07 11:53:00,
2013-03-07 05:59:00,37.8,18.8,29.91,WNW,292,2.2,2.4,46,0.00,CLR,,0.00,WeatherDisplay:10.37,2013-03-07 11:59:00,
2013-03-07 06:04:00,37.6,18.6,29.91,NW,315,2.0,2.6,46,0.00,CLR,,0.00,WeatherDisplay:10.37,2013-03-07 12:04:00,
2013-03-07 06:09:00,37.6,18.6,29.91,North,0,1.6,2.3,46,0.00,CLR,,0.00,WeatherDisplay:10.37,2013-03-07 12:09:00,
2013-03-07 06:15:00,37.4,18.5,29.91,North,0,1.6,2.4,46,0.00,CLR,,0.00,WeatherDisplay:10.37,2013-03-07 12:15:00,
2013-03-07 06:21:00,37.0,18.7,29.91,North,0,2.0,2.3,47,0.00,CLR,,0.00,WeatherDisplay:10.37,2013-03-07 12:21:00,
2013-03-07 06:27:00,37.0,19.6,29.91,North,0,1.6,2.3,49,0.00,CLR,,0.00,WeatherDisplay:10.37,2013-03-07 12:27:00,
2013-03-07 06:33:00,37.2,19.8,29.91,North,0,3.1,4.6,49,0.00,CLR,,0.00,WeatherDisplay:10.37,2013-03-07 12:33:00,
2013-03-07 06:39:00,37.2,19.8,29.91,North,0,2.9,3.5,49,0.00,CLR,,0.00,WeatherDisplay:10.37,2013-03-07 12:39:00,
2013-03-07 06:44:00,37.4,19.5,29.91,North,0,2.6,3.5,48,0.00,CLR,,0.00,WeatherDisplay:10.37,2013-03-07 12:44:00,
2013-03-07 06:50:00,37.8,19.8,29.91,NNE,22,1.4,3.5,48,0.00,CLR,,0.00,WeatherDisplay:10.37,2013-03-07 12:50:00,
2013-03-07 06:55:00,38.1,20.1,29.91,NE,45,2.0,3.1,48,0.00,CLR,,0.00,WeatherDisplay:10.37,2013-03-07 12:55:00,
2013-03-07 07:00:00,38.5,19.0,29.91,ENE,68,3.3,5.8,45,0.00,CLR,,0.00,WeatherDisplay:10.37,2013-03-07 13:00:00,
2013-03-07 07:05:00,38.3,18.8,29.91,NNE,22,2.9,3.5,45,0.00,CLR,,0.00,WeatherDisplay:10.37,2013-03-07 13:05:00,
2013-03-07 07:10:00,38.5,18.4,29.94,North,0,4.3,4.6,44,0.00,CLR,,0.00,WeatherDisplay:10.37,2013-03-07 13:10:00,
2013-03-07 07:15:00,38.5,18.4,29.94,North,0,3.3,4.0,44,0.00,CLR,,0.00,WeatherDisplay:10.37,2013-03-07 13:15:00,
2013-03-07 07:21:00,38.8,19.3,29.97,North,0,3.8,4.6,45,0.00,CLR,,0.00,WeatherDisplay:10.37,2013-03-07 13:21:00,
2013-03-07 07:26:00,39.2,18.5,29.97,North,0,4.5,6.2,43,0.00,CLR,,0.00,WeatherDisplay:10.37,2013-03-07 13:26:00,
2013-03-07 07:31:00,39.4,18.7,29.97,North,0,4.7,6.9,43,0.00,CLR,,0.00,WeatherDisplay:10.37,2013-03-07 13:31:00,
2013-03-07 07:36:00,39.7,18.5,29.97,NNE,22,5.4,8.1,42,0.00,CLR,,0.00,WeatherDisplay:10.37,2013-03-07 13:36:00,
2013-03-07 07:41:00,40.6,19.3,29.97,North,0,4.7,6.9,42,0.00,CLR,,0.00,WeatherDisplay:10.37,2013-03-07 13:41:00,
2013-03-07 07:46:00,41.2,19.8,29.97,North,0,5.6,5.9,42,0.00,CLR,,0.00,WeatherDisplay:10.37,2013-03-07 13:46:00,
2013-03-07 07:51:00,41.9,19.3,29.97,NE,45,4.0,5.8,40,0.00,CLR,,0.00,WeatherDisplay:10.37,2013-03-07 13:51:00,
2013-03-07 07:56:00,42.8,20.1,29.97,NE,45,3.8,5.8,40,0.00,CLR,,0.00,WeatherDisplay:10.37,2013-03-07 13:56:00,
2013-03-07 08:02:00,43.0,19.1,29.97,NE,45,4.9,6.0,38,0.00,CLR,,0.00,WeatherDisplay:10.37,2013-03-07 14:02:00,
2013-03-07 08:07:00,43.7,20.3,29.97,NNE,22,4.5,6.0,39,0.00,CLR,,0.00,WeatherDisplay:10.37,2013-03-07 14:07:00,
2013-03-07 08:12:00,43.9,19.9,29.97,North,0,4.5,5.8,38,0.00,CLR,,0.00,WeatherDisplay:10.37,2013-03-07 14:12:00,
2013-03-07 08:17:00,44.4,19.7,29.97,North,0,2.9,4.6,37,0.00,CLR,,0.00,WeatherDisplay:10.37,2013-03-07 14:17:00,
2013-03-07 08:22:00,45.0,19.6,29.97,NNE,22,4.5,5.9,36,0.00,CLR,,0.00,WeatherDisplay:10.37,2013-03-07 14:22:00,
2013-03-07 08:27:00,45.0,18.2,29.97,NE,45,4.9,7.8,34,0.00,CLR,,0.00,WeatherDisplay:10.37,2013-03-07 14:27:00,
2013-03-07 08:32:00,45.3,18.6,29.97,NNE,22,6.4,8.1,34,0.00,CLR,,0.00,WeatherDisplay:10.37,2013-03-07 14:32:00,
2013-03-07 08:37:00,45.5,18.7,29.97,NE,45,5.4,8.5,34,0.00,CLR,,0.00,WeatherDisplay:10.37,2013-03-07 14:37:00,
2013-03-07 08:42:00,46.0,18.5,29.97,North,0,6.2,6.9,33,0.00,CLR,,0.00,WeatherDisplay:10.37,2013-03-07 14:42:00,
2013-03-07 08:47:00,46.8,18.4,29.97,NNE,22,5.9,7.4,32,0.00,CLR,,0.00,WeatherDisplay:10.37,2013-03-07 14:47:00,
2013-03-07 08:53:00,46.8,17.7,29.97,ENE,68,7.1,9.8,31,0.00,CLR,,0.00,WeatherDisplay:10.37,2013-03-07 14:53:00,
2013-03-07 08:58:00,46.8,16.9,29.97,ENE,68,7.6,8.1,30,0.00,CLR,,0.00,WeatherDisplay:10.37,2013-03-07 14:58:00,
2013-03-07 09:03:00,47.1,17.2,29.97,NE,45,6.4,9.2,30,0.00,CLR,,0.00,WeatherDisplay:10.37,2013-03-07 15:03:00,
2013-03-07 09:08:00,47.7,17.7,29.97,ENE,68,5.9,9.2,30,0.00,CLR,,0.00,WeatherDisplay:10.37,2013-03-07 15:08:00,
2013-03-07 09:13:00,48.2,17.4,29.97,East,90,5.4,6.9,29,0.00,CLR,,0.00,WeatherDisplay:10.37,2013-03-07 15:13:00,
2013-03-07 09:18:00,48.2,17.4,29.97,NE,45,6.9,6.9,29,0.00,CLR,,0.00,WeatherDisplay:10.37,2013-03-07 15:18:00,
2013-03-07 09:23:00,48.6,17.7,29.97,ENE,68,4.3,8.1,29,0.00,CLR,,0.00,WeatherDisplay:10.37,2013-03-07 15:23:00,
2013-03-07 09:28:00,49.3,17.5,29.97,East,90,6.4,7.4,28,0.00,CLR,,0.00,WeatherDisplay:10.37,2013-03-07 15:28:00,
2013-03-07 09:33:00,49.1,17.3,29.97,NNE,22,5.9,8.1,28,0.00,CLR,,0.00,WeatherDisplay:10.37,2013-03-07 15:33:00,
2013-03-07 09:38:00,50.0,18.1,29.97,NNE,22,4.9,5.9,28,0.00,CLR,,0.00,WeatherDisplay:10.37,2013-03-07 15:38:00,
2013-03-07 09:43:00,49.8,18.0,29.97,North,0,7.4,7.6,28,0.00,CLR,,0.00,WeatherDisplay:10.37,2013-03-07 15:43:00,
2013-03-07 09:48:00,50.2,17.4,29.97,NNE,22,5.9,7.4,27,0.00,CLR,,0.00,WeatherDisplay:10.37,2013-03-07 15:48:00,
2013-03-07 09:53:00,50.4,17.6,29.97,ENE,68,4.9,6.9,27,0.00,CLR,,0.00,WeatherDisplay:10.37,2013-03-07 15:53:00,
2013-03-07 09:58:00,50.7,17.9,29.97,NE,45,3.6,5.8,27,0.00,CLR,,0.00,WeatherDisplay:10.37,2013-03-07 15:58:00,
2013-03-07 10:03:00,51.6,18.7,29.97,ENE,68,4.3,6.4,27,0.00,CLR,,0.00,WeatherDisplay:10.37,2013-03-07 16:03:00,
2013-03-07 10:08:00,51.4,18.5,29.97,NE,45,6.0,6.0,27,0.00,CLR,,0.00,WeatherDisplay:10.37,2013-03-07 16:08:00,
2013-03-07 10:13:00,51.4,18.5,29.97,North,0,6.0,7.8,27,0.00,CLR,,0.00,WeatherDisplay:10.37,2013-03-07 16:13:00,
2013-03-07 10:18:00,52.3,19.3,29.97,NNW,338,4.7,6.9,27,0.00,CLR,,0.00,WeatherDisplay:10.37,2013-03-07 16:18:00,
2013-03-07 10:23:00,52.3,19.3,29.97,NNW,338,4.9,8.1,27,0.00,CLR,,0.00,WeatherDisplay:10.37,2013-03-07 16:23:00,
2013-03-07 10:28:00,52.5,18.6,29.97,NE,45,5.9,7.6,26,0.00,CLR,,0.00,WeatherDisplay:10.37,2013-03-07 16:28:00,
2013-03-07 10:33:00,53.8,19.7,29.97,NE,45,2.6,8.7,26,0.00,CLR,,0.00,WeatherDisplay:10.37,2013-03-07 16:33:00,
2013-03-07 10:38:00,53.4,20.2,29.97,SSE,158,3.8,5.8,27,0.00,CLR,,0.00,WeatherDisplay:10.37,2013-03-07 16:38:00,
2013-03-07 10:43:00,54.1,20.0,29.97,NE,45,5.4,6.9,26,0.00,CLR,,0.00,WeatherDisplay:10.37,2013-03-07 16:43:00,
2013-03-07 10:48:00,53.8,19.7,29.97,East,90,5.4,8.1,26,0.00,CLR,,0.00,WeatherDisplay:10.37,2013-03-07 16:48:00,
2013-03-07 10:53:00,54.0,19.8,29.97,ESE,112,2.2,5.8,26,0.00,CLR,,0.00,WeatherDisplay:10.37,2013-03-07 16:53:00,
2013-03-07 11:00:00,54.7,20.4,29.97,East,90,3.8,8.1,26,0.00,CLR,,0.00,WeatherDisplay:10.37,2013-03-07 17:00:00,
2013-03-07 11:05:00,55.4,20.1,29.97,NE,45,3.8,6.9,25,0.00,CLR,,0.00,WeatherDisplay:10.37,2013-03-07 17:05:00,
2013-03-07 11:10:00,56.3,20.9,30.00,East,90,3.1,3.6,25,0.00,CLR,,0.00,WeatherDisplay:10.37,2013-03-07 17:10:00,
2013-03-07 11:15:00,56.5,21.0,30.00,SSE,158,3.8,4.7,25,0.00,CLR,,0.00,WeatherDisplay:10.37,2013-03-07 17:15:00,
2013-03-07 11:20:00,56.5,21.0,30.00,North,0,3.6,9.2,25,0.00,CLR,,0.00,WeatherDisplay:10.37,2013-03-07 17:20:00,
2013-03-07 11:25:00,57.4,21.8,29.97,WNW,292,3.1,5.8,25,0.00,CLR,,0.00,WeatherDisplay:10.37,2013-03-07 17:25:00,
2013-03-07 11:30:00,57.2,20.7,29.97,West,270,4.7,6.0,24,0.00,CLR,,0.00,WeatherDisplay:10.37,2013-03-07 17:30:00,
2013-03-07 11:35:00,57.2,20.7,29.97,NNW,338,2.2,5.8,24,0.00,CLR,,0.00,WeatherDisplay:10.37,2013-03-07 17:35:00,
2013-03-07 11:40:00,57.0,21.5,29.97,West,270,4.7,5.9,25,0.00,CLR,,0.00,WeatherDisplay:10.37,2013-03-07 17:40:00,
2013-03-07 11:45:00,57.9,21.3,29.97,North,0,2.4,4.6,24,0.00,CLR,,0.00,WeatherDisplay:10.37,2013-03-07 17:45:00,
2013-03-07 11:50:00,58.5,19.7,29.97,NE,45,3.1,5.8,22,0.00,CLR,,0.00,WeatherDisplay:10.37,2013-03-07 17:50:00,
2013-03-07 11:55:00,58.8,20.0,29.97,North,0,5.6,6.2,22,0.00,CLR,,0.00,WeatherDisplay:10.37,2013-03-07 17:55:00,
2013-03-07 12:00:00,59.5,22.7,29.97,NNE,22,5.9,7.4,24,0.00,CLR,,0.00,WeatherDisplay:10.37,2013-03-07 18:00:00,
2013-03-07 12:05:00,59.2,20.3,29.97,NE,45,4.7,6.2,22,0.00,CLR,,0.00,WeatherDisplay:10.37,2013-03-07 18:05:00,
2013-03-07 12:10:00,59.7,20.8,29.97,NE,45,2.0,4.6,22,0.00,CLR,,0.00,WeatherDisplay:10.37,2013-03-07 18:10:00,
2013-03-07 12:15:00,60.3,21.2,29.97,WNW,292,1.2,3.5,22,0.00,CLR,,0.00,WeatherDisplay:10.37,2013-03-07 18:15:00,
2013-03-07 12:20:00,60.3,21.2,29.97,NNW,338,5.4,10.4,22,0.00,CLR,,0.00,WeatherDisplay:10.37,2013-03-07 18:20:00,
2013-03-07 12:25:00,59.9,20.9,29.94,West,270,4.9,6.0,22,0.00,CLR,,0.00,WeatherDisplay:10.37,2013-03-07 18:25:00,
2013-03-07 12:30:00,59.5,20.6,29.94,WSW,248,5.9,7.1,22,0.00,CLR,,0.00,WeatherDisplay:10.37,2013-03-07 18:30:00,
2013-03-07 12:35:00,59.9,20.9,29.94,SSW,202,3.6,5.8,22,0.00,CLR,,0.00,WeatherDisplay:10.37,2013-03-07 18:35:00,
2013-03-07 12:40:00,60.6,21.5,29.94,NE,45,3.3,5.8,22,0.00,CLR,,0.00,WeatherDisplay:10.37,2013-03-07 18:40:00,
2013-03-07 12:45:00,61.0,18.4,29.94,North,0,4.5,5.9,19,0.00,CLR,,0.00,WeatherDisplay:10.37,2013-03-07 18:45:00,
2013-03-07 12:50:00,61.0,18.4,29.94,NW,315,3.1,9.2,19,0.00,CLR,,0.00,WeatherDisplay:10.37,2013-03-07 18:50:00,
2013-03-07 12:55:00,61.2,18.5,29.94,North,0,4.7,10.4,19,0.00,CLR,,0.00,WeatherDisplay:10.37,2013-03-07 18:55:00,
2013-03-07 13:00:00,61.7,19.0,29.94,SW,225,4.9,7.1,19,0.00,CLR,,0.00,WeatherDisplay:10.37,2013-03-07 19:00:00,
2013-03-07 13:05:00,61.9,19.1,29.94,East,90,3.1,4.6,19,0.00,CLR,,0.00,WeatherDisplay:10.37,2013-03-07 19:05:00,
2013-03-07 13:10:00,62.4,19.6,29.94,WNW,292,2.0,4.6,19,0.00,CLR,,0.00,WeatherDisplay:10.37,2013-03-07 19:10:00,
2013-03-07 13:15:00,62.4,19.6,29.94,NW,315,5.6,8.1,19,0.00,CLR,,0.00,WeatherDisplay:10.37,2013-03-07 19:15:00,
2013-03-07 13:20:00,62.6,18.4,29.94,West,270,2.4,6.9,18,0.00,CLR,,0.00,WeatherDisplay:10.37,2013-03-07 19:20:00,
2013-03-07 13:25:00,61.9,19.1,29.94,West,270,4.3,6.9,19,0.00,CLR,,0.00,WeatherDisplay:10.37,2013-03-07 19:25:00,
2013-03-07 13:30:00,62.4,19.6,29.94,WSW,248,2.0,6.9,19,0.00,CLR,,0.00,WeatherDisplay:10.37,2013-03-07 19:30:00,
2013-03-07 13:36:00,62.2,19.4,29.94,NNW,338,5.4,7.6,19,0.00,CLR,,0.00,WeatherDisplay:10.37,2013-03-07 19:36:00,
2013-03-07 13:41:00,62.1,19.3,29.94,West,270,3.1,10.4,19,0.00,CLR,,0.00,WeatherDisplay:10.37,2013-03-07 19:41:00,
2013-03-07 13:46:00,63.0,18.7,29.94,NNW,338,5.4,7.4,18,0.00,CLR,,0.00,WeatherDisplay:10.37,2013-03-07 19:46:00,
2013-03-07 13:51:00,62.6,18.4,29.94,ENE,68,4.3,6.0,18,0.00,CLR,,0.00,WeatherDisplay:10.37,2013-03-07 19:51:00,
2013-03-07 13:56:00,62.6,18.4,29.94,WNW,292,5.9,9.2,18,0.00,CLR,,0.00,WeatherDisplay:10.37,2013-03-07 19:56:00,
2013-03-07 14:01:00,63.0,18.7,29.94,NE,45,5.4,8.1,18,0.00,CLR,,0.00,WeatherDisplay:10.37,2013-03-07 20:01:00,
2013-03-07 14:06:00,63.1,18.9,29.94,East,90,2.9,5.8,18,0.00,CLR,,0.00,WeatherDisplay:10.37,2013-03-07 20:06:00,
2013-03-07 14:11:00,63.1,18.9,29.94,NNW,338,6.2,8.1,18,0.00,CLR,,0.00,WeatherDisplay:10.37,2013-03-07 20:11:00,
2013-03-07 14:16:00,63.1,18.9,29.94,NNW,338,5.4,6.2,18,0.00,CLR,,0.00,WeatherDisplay:10.37,2013-03-07 20:16:00,
2013-03-07 14:21:00,63.3,19.0,29.91,North,0,4.3,8.1,18,0.00,CLR,,0.00,WeatherDisplay:10.37,2013-03-07 20:21:00,
2013-03-07 14:26:00,64.6,20.1,29.91,North,0,4.0,6.2,18,0.00,CLR,,0.00,WeatherDisplay:10.37,2013-03-07 20:26:00,
2013-03-07 14:31:00,64.8,20.2,29.91,North,0,5.9,6.4,18,0.00,CLR,,0.00,WeatherDisplay:10.37,2013-03-07 20:31:00,
2013-03-07 14:36:00,65.7,21.0,29.91,NNE,22,6.4,8.1,18,0.00,CLR,,0.00,WeatherDisplay:10.37,2013-03-07 20:36:00,
2013-03-07 14:41:00,64.9,20.4,29.91,NNE,22,4.5,6.9,18,0.00,CLR,,0.00,WeatherDisplay:10.37,2013-03-07 20:41:00,
2013-03-07 14:46:00,64.8,20.2,29.91,NNW,338,5.6,6.7,18,0.00,CLR,,0.00,WeatherDisplay:10.37,2013-03-07 20:46:00,
2013-03-07 14:51:00,64.2,19.8,29.91,West,270,4.0,5.8,18,0.00,CLR,,0.00,WeatherDisplay:10.37,2013-03-07 20:51:00,
2013-03-07 14:56:00,64.4,19.9,29.91,North,0,4.3,6.2,18,0.00,CLR,,0.00,WeatherDisplay:10.37,2013-03-07 20:56:00,
2013-03-07 15:01:00,64.2,19.8,29.91,North,0,5.4,8.1,18,0.00,CLR,,0.00,WeatherDisplay:10.37,2013-03-07 21:01:00,
2013-03-07 15:06:00,63.9,19.5,29.91,West,270,3.1,5.8,18,0.00,CLR,,0.00,WeatherDisplay:10.37,2013-03-07 21:06:00,
2013-03-07 15:11:00,63.1,18.9,29.91,West,270,3.1,6.9,18,0.00,CLR,,0.00,WeatherDisplay:10.37,2013-03-07 21:11:00,
2013-03-07 15:16:00,63.1,18.9,29.91,NNW,338,4.3,5.8,18,0.00,CLR,,0.00,WeatherDisplay:10.37,2013-03-07 21:16:00,
2013-03-07 15:21:00,63.5,19.2,29.94,NE,45,3.3,4.3,18,0.00,CLR,,0.00,WeatherDisplay:10.37,2013-03-07 21:21:00,
2013-03-07 15:26:00,63.3,19.0,29.94,NNE,22,3.3,4.6,18,0.00,CLR,,0.00,WeatherDisplay:10.37,2013-03-07 21:26:00,
2013-03-07 15:31:00,64.0,19.6,29.94,NNE,22,3.8,5.9,18,0.00,CLR,,0.00,WeatherDisplay:10.37,2013-03-07 21:31:00,
2013-03-07 15:36:00,63.7,19.3,29.91,NE,45,2.9,3.6,18,0.00,CLR,,0.00,WeatherDisplay:10.37,2013-03-07 21:36:00,
2013-03-07 15:41:00,63.7,19.3,29.91,WSW,248,2.2,3.5,18,0.00,CLR,,0.00,WeatherDisplay:10.37,2013-03-07 21:41:00,
2013-03-07 15:46:00,64.0,19.6,29.91,North,0,3.8,4.6,18,0.00,CLR,,0.00,WeatherDisplay:10.37,2013-03-07 21:46:00,
2013-03-07 15:51:00,64.6,20.1,29.91,NW,315,4.7,5.9,18,0.00,CLR,,0.00,WeatherDisplay:10.37,2013-03-07 21:51:00,
2013-03-07 15:56:00,64.4,19.9,29.91,North,0,3.6,4.9,18,0.00,CLR,,0.00,WeatherDisplay:10.37,2013-03-07 21:56:00,
2013-03-07 16:01:00,64.4,19.9,29.91,NNE,22,4.3,4.9,18,0.00,CLR,,0.00,WeatherDisplay:10.37,2013-03-07 22:01:00,
2013-03-07 16:06:00,63.9,19.5,29.91,NW,315,4.0,6.9,18,0.00,CLR,,0.00,WeatherDisplay:10.37,2013-03-07 22:06:00,
2013-03-07 16:11:00,63.5,19.2,29.91,NW,315,4.3,5.4,18,0.00,CLR,,0.00,WeatherDisplay:10.37,2013-03-07 22:11:00,
2013-03-07 16:16:00,63.1,18.9,29.91,NNW,338,4.3,5.8,18,0.00,CLR,,0.00,WeatherDisplay:10.37,2013-03-07 22:16:00,
2013-03-07 16:21:00,63.1,18.9,29.91,North,0,0.0,2.3,18,0.00,CLR,,0.00,WeatherDisplay:10.37,2013-03-07 22:21:00,
2013-03-07 16:26:00,63.1,18.9,29.91,NE,45,0.0,0.0,18,0.00,CLR,,0.00,WeatherDisplay:10.37,2013-03-07 22:26:00,
2013-03-07 16:31:00,63.5,19.2,29.91,West,270,0.0,2.6,18,0.00,CLR,,0.00,WeatherDisplay:10.37,2013-03-07 22:31:00,
2013-03-07 16:36:00,63.5,19.2,29.91,NNW,338,4.0,4.7,18,0.00,CLR,,0.00,WeatherDisplay:10.37,2013-03-07 22:36:00,
2013-03-07 16:41:00,63.1,18.9,29.91,WSW,248,2.4,5.8,18,0.00,CLR,,0.00,WeatherDisplay:10.37,2013-03-07 22:41:00,
2013-03-07 16:46:00,63.1,18.9,29.91,WNW,292,3.1,4.6,18,0.00,CLR,,0.00,WeatherDisplay:10.37,2013-03-07 22:46:00,
2013-03-07 16:51:00,63.0,18.7,29.91,West,270,3.8,4.7,18,0.00,CLR,,0.00,WeatherDisplay:10.37,2013-03-07 22:51:00,
2013-03-07 16:57:00,62.8,18.6,29.91,SW,225,3.3,4.6,18,0.00,CLR,,0.00,WeatherDisplay:10.37,2013-03-07 22:57:00,
2013-03-07 17:02:00,60.8,23.7,29.91,SSW,202,6.0,6.2,24,0.00,CLR,,0.00,WeatherDisplay:10.37,2013-03-07 23:02:00,
2013-03-07 17:07:00,59.2,23.3,29.91,South,180,6.7,10.0,25,0.00,CLR,,0.00,WeatherDisplay:10.37,2013-03-07 23:07:00,
2013-03-07 17:12:00,58.6,23.8,29.91,South,180,5.4,7.1,26,0.00,CLR,,0.00,WeatherDisplay:10.37,2013-03-07 23:12:00,
2013-03-07 17:17:00,57.9,24.1,29.91,South,180,4.5,5.8,27,0.00,CLR,,0.00,WeatherDisplay:10.37,2013-03-07 23:17:00,
2013-03-07 17:22:00,57.4,25.3,29.94,SSW,202,4.5,6.9,29,0.00,CLR,,0.00,WeatherDisplay:10.37,2013-03-07 23:22:00,
2013-03-07 17:27:00,57.0,25.0,29.94,SSE,158,3.6,4.0,29,0.00,CLR,,0.00,WeatherDisplay:10.37,2013-03-07 23:27:00,
2013-03-07 17:32:00,56.7,24.7,29.94,SSW,202,3.8,5.8,29,0.00,CLR,,0.00,WeatherDisplay:10.37,2013-03-07 23:32:00,
2013-03-07 17:37:00,56.3,25.2,29.94,SSW,202,3.1,4.6,30,0.00,CLR,,0.00,WeatherDisplay:10.37,2013-03-07 23:37:00,
2013-03-07 17:43:00,55.9,25.7,29.94,South,180,2.6,3.8,31,0.00,CLR,,0.00,WeatherDisplay:10.37,2013-03-07 23:43:00,
2013-03-07 17:48:00,55.6,25.4,29.94,South,180,2.6,3.5,31,0.00,CLR,,0.00,WeatherDisplay:10.37,2013-03-07 23:48:00,
2013-03-07 17:53:00,55.4,26.0,29.94,SSW,202,2.9,4.6,32,0.00,CLR,,0.00,WeatherDisplay:10.37,2013-03-07 23:53:00,
2013-03-07 17:58:00,55.0,25.7,29.94,SSW,202,2.9,3.5,32,0.00,CLR,,0.00,WeatherDisplay:10.37,2013-03-07 23:58:00,
2013-03-07 18:03:00,54.7,25.4,29.94,SSW,202,2.0,2.6,32,0.00,CLR,,0.00,WeatherDisplay:10.37,2013-03-08 00:03:00,
2013-03-07 18:08:00,54.5,25.2,29.94,SW,225,1.4,2.3,32,0.00,CLR,,0.00,WeatherDisplay:10.37,2013-03-08 00:08:00,
2013-03-07 18:13:00,54.1,27.1,29.94,SSE,158,1.6,2.4,35,0.00,CLR,,0.00,WeatherDisplay:10.37,2013-03-08 00:13:00,
2013-03-07 18:18:00,53.8,26.7,29.94,South,180,1.4,2.3,35,0.00,CLR,,0.00,WeatherDisplay:10.37,2013-03-08 00:18:00,
2013-03-07 18:23:00,53.6,25.9,29.94,South,180,1.2,1.6,34,0.00,CLR,,0.00,WeatherDisplay:10.37,2013-03-08 00:23:00,
2013-03-07 18:28:00,53.4,27.1,29.94,SSE,158,2.0,2.6,36,0.00,CLR,,0.00,WeatherDisplay:10.37,2013-03-08 00:28:00,
2013-03-07 18:33:00,53.1,26.8,29.94,SSE,158,1.6,2.3,36,0.00,CLR,,0.00,WeatherDisplay:10.37,2013-03-08 00:33:00,
2013-03-07 18:38:00,52.7,26.5,29.94,South,180,0.0,0.0,36,0.00,CLR,,0.00,WeatherDisplay:10.37,2013-03-08 00:38:00,
2013-03-07 18:43:00,52.5,26.3,29.94,SSE,158,0.0,1.2,36,0.00,CLR,,0.00,WeatherDisplay:10.37,2013-03-08 00:43:00,
2013-03-07 18:48:00,52.2,27.3,29.94,ESE,112,0.9,1.6,38,0.00,CLR,,0.00,WeatherDisplay:10.37,2013-03-08 00:48:00,
2013-03-07 18:53:00,51.8,26.3,29.97,ESE,112,0.0,1.2,37,0.00,CLR,,0.00,WeatherDisplay:10.37,2013-03-08 00:53:00,
2013-03-07 18:58:00,51.6,26.2,29.97,SW,225,0.0,0.0,37,0.00,CLR,,0.00,WeatherDisplay:10.37,2013-03-08 00:58:00,
2013-03-07 19:03:00,51.4,27.3,29.97,South,180,1.4,2.3,39,0.00,CLR,,0.00,WeatherDisplay:10.37,2013-03-08 01:03:00,
2013-03-07 19:08:00,51.3,26.5,29.94,ESE,112,1.4,2.3,38,0.00,CLR,,0.00,WeatherDisplay:10.37,2013-03-08 01:08:00,
2013-03-07 19:13:00,51.1,26.3,29.94,West,270,0.0,0.0,38,0.00,CLR,,0.00,WeatherDisplay:10.37,2013-03-08 01:13:00,
2013-03-07 19:18:00,50.7,26.0,29.94,SSW,202,0.9,2.3,38,0.00,CLR,,0.00,WeatherDisplay:10.37,2013-03-08 01:18:00,
2013-03-07 19:23:00,50.7,26.0,29.94,ESE,112,1.6,2.3,38,0.00,CLR,,0.00,WeatherDisplay:10.37,2013-03-08 01:23:00,
2013-03-07 19:28:00,50.2,26.1,29.94,WNW,292,0.0,1.2,39,0.00,CLR,,0.00,WeatherDisplay:10.37,2013-03-08 01:28:00,
2013-03-07 19:34:00,49.8,25.8,29.94,West,270,0.0,1.2,39,0.00,CLR,,0.00,WeatherDisplay:10.37,2013-03-08 01:34:00,
2013-03-07 19:39:00,49.8,27.6,29.94,South,180,2.2,2.6,42,0.00,CLR,,0.00,WeatherDisplay:10.37,2013-03-08 01:39:00,
2013-03-07 19:45:00,49.8,26.4,29.94,SW,225,1.6,2.3,40,0.00,CLR,,0.00,WeatherDisplay:10.37,2013-03-08 01:45:00,
2013-03-07 19:51:00,49.3,26.0,29.94,SSW,202,0.0,0.0,40,0.00,CLR,,0.00,WeatherDisplay:10.37,2013-03-08 01:51:00,
2013-03-07 19:56:00,49.3,26.5,29.94,SSW,202,0.9,2.3,41,0.00,CLR,,0.00,WeatherDisplay:10.37,2013-03-08 01:56:00,
2013-03-07 20:01:00,49.1,25.8,29.94,SSW,202,0.0,0.0,40,0.00,CLR,,0.00,WeatherDisplay:10.37,2013-03-08 02:01:00,
2013-03-07 20:06:00,48.7,25.5,29.94,SW,225,0.0,0.0,40,0.00,CLR,,0.00,WeatherDisplay:10.37,2013-03-08 02:06:00,
2013-03-07 20:11:00,48.4,24.5,29.94,SW,225,0.0,0.0,39,0.00,CLR,,0.00,WeatherDisplay:10.37,2013-03-08 02:11:00,
2013-03-07 20:16:00,48.2,25.6,29.94,West,270,1.4,2.3,41,0.00,CLR,,0.00,WeatherDisplay:10.37,2013-03-08 02:16:00,
2013-03-07 20:21:00,48.4,25.7,29.94,West,270,0.9,2.3,41,0.00,CLR,,0.00,WeatherDisplay:10.37,2013-03-08 02:21:00,
2013-03-07 20:26:00,48.2,26.2,29.94,SSE,158,1.4,2.3,42,0.00,CLR,,0.00,WeatherDisplay:10.37,2013-03-08 02:26:00,
2013-03-07 20:31:00,48.2,25.6,29.94,WSW,248,0.0,2.3,41,0.00,CLR,,0.00,WeatherDisplay:10.37,2013-03-08 02:31:00,
2013-03-07 20:37:00,47.8,25.8,29.97,WNW,292,0.0,0.0,42,0.00,CLR,,0.00,WeatherDisplay:10.37,2013-03-08 02:37:00,
2013-03-07 20:42:00,47.7,26.2,29.97,West,270,1.2,2.3,43,0.00,CLR,,0.00,WeatherDisplay:10.37,2013-03-08 02:42:00,
2013-03-07 20:47:00,47.5,26.1,29.97,WSW,248,0.0,1.2,43,0.00,CLR,,0.00,WeatherDisplay:10.37,2013-03-08 02:47:00,
2013-03-07 20:52:00,47.3,25.3,29.94,WSW,248,0.0,0.0,42,0.00,CLR,,0.00,WeatherDisplay:10.37,2013-03-08 02:52:00,
2013-03-07 20:57:00,47.1,25.2,29.94,WSW,248,0.0,0.0,42,0.00,CLR,,0.00,WeatherDisplay:10.37,2013-03-08 02:57:00,
2013-03-07 21:02:00,46.8,25.4,29.94,NNW,338,0.0,0.0,43,0.00,CLR,,0.00,WeatherDisplay:10.37,2013-03-08 03:02:00,
2013-03-07 21:07:00,46.4,24.5,29.94,West,270,0.0,0.0,42,0.00,CLR,,0.00,WeatherDisplay:10.37,2013-03-08 03:07:00,
2013-03-07 21:12:00,46.4,27.2,29.94,South,180,0.0,0.0,47,0.00,CLR,,0.00,WeatherDisplay:10.37,2013-03-08 03:12:00,
2013-03-07 21:17:00,46.2,26.0,29.94,South,180,0.0,0.0,45,0.00,CLR,,0.00,WeatherDisplay:10.37,2013-03-08 03:17:00,
2013-03-07 21:22:00,45.9,25.7,29.94,West,270,0.0,0.0,45,0.00,CLR,,0.00,WeatherDisplay:10.37,2013-03-08 03:22:00,
2013-03-07 21:27:00,45.5,26.9,29.94,NW,315,0.0,0.0,48,0.00,CLR,,0.00,WeatherDisplay:10.37,2013-03-08 03:27:00,
2013-03-07 21:32:00,45.1,25.6,29.94,NW,315,0.0,0.0,46,0.00,CLR,,0.00,WeatherDisplay:10.37,2013-03-08 03:32:00,
2013-03-07 21:37:00,44.6,24.5,29.94,NW,315,0.0,0.0,45,0.00,CLR,,0.00,WeatherDisplay:10.37,2013-03-08 03:37:00,
2013-03-07 21:43:00,44.2,24.7,29.94,NW,315,0.0,0.0,46,0.00,CLR,,0.00,WeatherDisplay:10.37,2013-03-08 03:43:00,
2013-03-07 21:48:00,44.1,24.6,29.94,NW,315,0.0,0.0,46,0.00,CLR,,0.00,WeatherDisplay:10.37,2013-03-08 03:48:00,
2013-03-07 21:53:00,43.7,24.2,29.94,NW,315,0.0,0.0,46,0.00,CLR,,0.00,WeatherDisplay:10.37,2013-03-08 03:53:00,
2013-03-07 21:58:00,43.5,24.1,29.94,NW,315,0.0,0.0,46,0.00,CLR,,0.00,WeatherDisplay:10.37,2013-03-08 03:58:00,
2013-03-07 22:03:00,43.7,25.8,29.94,NE,45,0.0,0.0,49,0.00,CLR,,0.00,WeatherDisplay:10.37,2013-03-08 04:03:00,
2013-03-07 22:08:00,43.5,26.1,29.94,NE,45,0.0,0.0,50,0.00,CLR,,0.00,WeatherDisplay:10.37,2013-03-08 04:08:00,
2013-03-07 22:13:00,43.3,25.9,29.94,NE,45,0.0,0.0,50,0.00,CLR,,0.00,WeatherDisplay:10.37,2013-03-08 04:13:00,
2013-03-07 22:18:00,43.5,26.1,29.94,NE,45,0.0,0.0,50,0.00,CLR,,0.00,WeatherDisplay:10.37,2013-03-08 04:18:00,